createdAt,value
2022-09-01T00:04:47.273Z,2.50
2022-09-01T00:09:51.597Z,2.67
2022-09-01T00:14:54.706Z,2.85
2022-09-01T00:19:57.291Z,3.10
2022-09-01T00:25:28.348Z,3.20
2022-09-01T00:30:31.165Z,3.80
2022-09-01T00:35:37.083Z,3.35
2022-09-01T00:40:41.442Z,3.10
2022-09-01T00:45:44.342Z,2.80
2022-09-01T00:50:49.536Z,3.17
2022-09-01T00:55:58.616Z,3.58
2022-09-01T01:01:02.741Z,3.20
2022-09-01T01:06:09.080Z,2.80
2022-09-01T01:11:17.789Z,2.90
2022-09-01T01:16:20.570Z,3.38
2022-09-01T01:21:47.541Z,3.30
2022-09-01T01:26:51.844Z,2.90
2022-09-01T01:31:54.394Z,2.90
2022-09-01T01:36:59.811Z,3.80
2022-09-01T01:42:04.111Z,3.30
2022-09-01T01:47:12.965Z,3.28
2022-09-01T01:52:17.442Z,3.30
2022-09-01T01:57:21.359Z,3.25
2022-09-01T02:02:24.081Z,3.20
2022-09-01T02:07:27.467Z,3.80
2022-09-01T02:12:35.689Z,3.22
2022-09-01T02:17:39.757Z,3.40
2022-09-01T02:22:43.952Z,3.42
2022-09-01T02:27:55.555Z,3.22
2022-09-01T02:32:58.773Z,3.20
2022-09-01T02:38:01.704Z,2.88
2022-09-01T02:43:05.974Z,3.00
2022-09-01T02:48:09.715Z,3.28
2022-09-01T02:53:15.391Z,2.80
2022-09-01T02:58:20.151Z,2.83
2022-09-01T03:03:28.658Z,3.30
2022-09-01T03:08:34.332Z,3.17
2022-09-01T03:13:39.497Z,2.55
2022-09-01T03:18:42.837Z,3.60
2022-09-01T03:23:46.745Z,3.08
2022-09-01T03:28:51.010Z,2.80
2022-09-01T03:33:54.434Z,2.83
2022-09-01T03:38:57.273Z,2.63
2022-09-01T03:44:01.275Z,3.27
2022-09-01T03:49:06.454Z,2.70
2022-09-01T03:54:09.016Z,2.58
2022-09-01T03:59:16.678Z,3.08
2022-09-01T04:04:19.946Z,3.25
2022-09-01T04:09:22.571Z,3.25
2022-09-01T04:14:27.544Z,2.80
2022-09-01T04:19:36.814Z,3.20
2022-09-01T04:24:45.933Z,2.85
2022-09-01T04:29:50.236Z,2.97
2022-09-01T04:34:52.768Z,3.05
2022-09-01T04:39:57.686Z,2.92
2022-09-01T04:45:09.924Z,2.80
2022-09-01T04:50:17.590Z,2.70
2022-09-01T04:55:20.778Z,3.40
2022-09-01T05:00:31.661Z,3.00
2022-09-01T05:05:42.496Z,3.58
2022-09-01T05:10:47.325Z,2.85
2022-09-01T05:16:02.334Z,3.40
2022-09-01T05:21:11.040Z,3.10
2022-09-01T05:26:16.902Z,2.97
2022-09-01T05:31:21.878Z,3.45
2022-09-01T05:36:26.793Z,3.10
2022-09-01T05:41:29.907Z,2.92
2022-09-01T05:46:34.008Z,3.00
2022-09-01T05:51:45.952Z,3.05
2022-09-01T05:56:53.620Z,3.25
2022-09-01T06:01:57.851Z,2.95
2022-09-01T06:07:08.436Z,2.80
2022-09-01T06:12:17.910Z,2.80
2022-09-01T06:17:25.744Z,2.70
2022-09-01T06:22:29.652Z,2.70
2022-09-01T06:27:33.224Z,2.78
2022-09-01T06:32:38.521Z,3.13
2022-09-01T06:37:42.372Z,2.25
2022-09-01T06:42:47.336Z,2.08
2022-09-01T06:47:59.343Z,1.77
2022-09-01T06:58:36.434Z,1.83
2022-09-01T07:03:40.389Z,1.75
2022-09-01T07:14:16.523Z,1.40
2022-09-01T07:19:20.480Z,1.60
2022-09-01T07:24:26.628Z,1.42
2022-09-01T07:29:33.939Z,1.40
2022-09-01T07:34:39.715Z,1.58
2022-09-01T07:39:48.418Z,1.60
2022-09-01T07:44:52.939Z,1.90
2022-09-01T07:50:25.059Z,1.67
2022-09-01T07:55:19.548Z,2.00
2022-09-01T08:00:22.563Z,1.85
2022-09-01T08:05:28.848Z,1.85
2022-09-01T08:10:31.496Z,1.60
2022-09-01T08:16:06.537Z,1.30
2022-09-01T08:20:58.117Z,1.55
2022-09-01T08:26:06.686Z,1.25
2022-09-01T08:31:11.585Z,1.27
2022-09-01T08:36:22.887Z,1.08
2022-09-01T08:41:40.784Z,1.00
2022-09-01T08:46:55.276Z,1.23
2022-09-01T08:52:07.439Z,0.80
2022-09-01T08:57:14.833Z,1.20
2022-09-01T09:02:34.041Z,0.93
2022-09-01T09:08:06.565Z,1.15
2022-09-01T09:13:16.327Z,1.00
2022-09-01T09:18:39.997Z,0.95
2022-09-01T09:23:49.164Z,1.20
2022-09-01T09:28:51.782Z,1.05
2022-09-01T09:33:55.310Z,0.68
2022-09-01T09:39:12.022Z,0.80
2022-09-01T09:44:25.603Z,0.82
2022-09-01T09:49:35.909Z,1.10
2022-09-01T09:54:58.302Z,0.93
2022-09-01T10:00:08.307Z,0.98
2022-09-01T10:05:39.154Z,0.82
2022-09-01T10:10:45.801Z,1.17
2022-09-01T10:16:03.602Z,0.70
2022-09-01T10:21:11.098Z,0.57
2022-09-01T10:26:20.264Z,0.85
2022-09-01T10:31:23.991Z,0.80
2022-09-01T10:36:32.820Z,0.63
2022-09-01T10:41:53.340Z,0.70
2022-09-01T10:47:13.610Z,0.70
2022-09-01T10:52:51.468Z,0.80
2022-09-01T10:59:30.069Z,1.20
2022-09-01T11:03:47.888Z,1.00
2022-09-01T11:09:01.904Z,1.00
2022-09-01T11:14:19.669Z,0.85
2022-09-01T11:19:39.122Z,1.10
2022-09-01T11:25:00.446Z,0.93
2022-09-01T11:30:17.087Z,0.93
2022-09-01T11:35:21.702Z,0.85
2022-09-01T11:40:25.238Z,0.85
2022-09-01T11:45:34.703Z,0.85
2022-09-01T11:50:39.240Z,0.73
2022-09-01T11:55:43.730Z,0.90
2022-09-01T12:00:47.507Z,1.10
2022-09-01T12:05:54.579Z,0.70
2022-09-01T12:11:03.758Z,0.70
2022-09-01T12:16:24.621Z,0.90
2022-09-01T12:21:28.588Z,0.68
2022-09-01T12:26:32.064Z,0.80
2022-09-01T12:31:36.354Z,0.88
2022-09-01T12:36:38.975Z,1.00
2022-09-01T12:41:41.677Z,1.10
2022-09-01T12:46:46.939Z,0.70
2022-09-01T12:51:49.552Z,1.10
2022-09-01T12:56:52.084Z,0.90
2022-09-01T13:01:55.906Z,0.75
2022-09-01T13:07:01.638Z,0.90
2022-09-01T13:12:16.957Z,0.82
2022-09-01T13:17:20.910Z,0.88
2022-09-01T13:22:23.353Z,0.70
2022-09-01T13:27:25.775Z,0.70
2022-09-01T13:32:30.770Z,0.85
2022-09-01T13:37:33.568Z,0.70
2022-09-01T13:42:36.049Z,0.85
2022-09-01T13:48:15.111Z,1.17
2022-09-01T13:53:02.374Z,0.90
2022-09-01T13:58:05.093Z,0.90
2022-09-01T14:03:09.827Z,0.75
2022-09-01T14:08:13.066Z,0.80
2022-09-01T14:13:16.577Z,0.60
2022-09-01T14:18:21.789Z,0.93
2022-09-01T14:23:24.392Z,1.10
2022-09-01T14:28:26.875Z,0.95
2022-09-01T14:33:31.831Z,0.80
2022-09-01T14:38:35.616Z,1.00
2022-09-01T14:43:38.646Z,0.93
2022-09-01T14:48:42.460Z,0.93
2022-09-01T14:53:44.849Z,0.70
2022-09-01T14:58:48.043Z,0.80
2022-09-01T15:03:52.307Z,0.85
2022-09-01T15:08:54.861Z,0.90
2022-09-01T15:13:57.724Z,0.80
2022-09-01T15:19:01.594Z,0.98
2022-09-01T15:24:04.642Z,0.80
2022-09-01T15:29:07.770Z,0.80
2022-09-01T15:34:13.027Z,0.70
2022-09-01T15:39:15.449Z,0.80
2022-09-01T15:44:17.914Z,0.85
2022-09-01T15:49:21.730Z,0.75
2022-09-01T15:54:30.160Z,0.70
2022-09-01T15:59:32.958Z,1.05
2022-09-01T16:04:36.849Z,0.82
2022-09-01T16:09:40.577Z,0.77
2022-09-01T16:14:43.071Z,0.82
2022-09-01T16:19:52.864Z,0.80
2022-09-01T16:24:57.815Z,0.80
2022-09-01T16:30:03.082Z,0.88
2022-09-01T16:35:07.245Z,1.42
2022-09-01T16:40:13.922Z,0.88
2022-09-01T16:45:19.304Z,0.90
2022-09-01T16:50:29.045Z,0.90
2022-09-01T16:55:37.338Z,0.90
2022-09-01T17:00:43.790Z,0.90
2022-09-01T17:05:52.974Z,1.23
2022-09-01T17:10:57.324Z,0.73
2022-09-01T17:16:02.972Z,1.10
2022-09-01T17:21:10.179Z,1.10
2022-09-01T17:26:16.297Z,1.02
2022-09-01T17:31:22.865Z,1.48
2022-09-01T17:36:34.560Z,1.05
2022-09-01T17:41:39.614Z,1.42
2022-09-01T17:46:43.466Z,1.30
2022-09-01T17:51:52.723Z,0.90
2022-09-01T17:56:59.399Z,0.70
2022-09-01T18:02:15.754Z,1.00
2022-09-01T18:07:27.846Z,1.27
2022-09-01T18:12:31.589Z,1.10
2022-09-01T18:17:35.609Z,1.10
2022-09-01T18:22:43.031Z,0.88
2022-09-01T18:27:47.505Z,0.70
2022-09-01T18:32:57.791Z,0.73
2022-09-01T18:38:26.957Z,0.98
2022-09-01T18:43:34.244Z,0.88
2022-09-01T18:48:45.485Z,0.90
2022-09-01T18:53:50.690Z,1.00
2022-09-01T18:59:00.622Z,0.95
2022-09-01T19:04:10.367Z,1.00
2022-09-01T19:09:15.587Z,0.88
2022-09-01T19:19:38.151Z,1.10
2022-09-01T19:24:44.467Z,1.00
2022-09-01T19:29:52.347Z,1.10
2022-09-01T19:34:57.069Z,1.02
2022-09-01T19:40:00.928Z,1.00
2022-09-01T19:45:08.585Z,1.20
2022-09-01T19:50:14.108Z,1.27
2022-09-01T19:55:18.982Z,1.52
2022-09-01T20:00:26.584Z,1.52
2022-09-01T20:05:31.949Z,1.40
2022-09-01T20:10:49.670Z,1.23
2022-09-01T20:16:02.951Z,1.52
2022-09-01T20:21:08.782Z,1.30
2022-09-01T20:26:23.292Z,1.38
2022-09-01T20:31:29.219Z,1.50
2022-09-01T20:36:33.246Z,1.02
2022-09-01T20:41:39.610Z,1.20
2022-09-01T20:46:43.727Z,0.90
2022-09-01T20:51:52.634Z,1.08
2022-09-01T20:57:00.926Z,0.80
2022-09-01T21:02:09.821Z,1.00
2022-09-01T21:07:15.857Z,0.75
2022-09-01T21:12:22.749Z,1.08
2022-09-01T21:17:32.442Z,0.95
2022-09-01T21:22:34.949Z,0.90
2022-09-01T21:27:38.735Z,0.70
2022-09-01T21:32:42.886Z,1.38
2022-09-01T21:37:45.327Z,0.98
2022-09-01T21:42:49.688Z,0.80
2022-09-01T21:47:53.663Z,0.77
2022-09-01T21:52:56.050Z,1.00
2022-09-01T21:57:58.443Z,0.75
2022-09-01T22:03:02.425Z,0.80
2022-09-01T22:08:04.932Z,1.00
2022-09-01T22:13:07.526Z,1.00
2022-09-01T22:18:11.264Z,1.30
2022-09-01T22:23:14.896Z,1.42
2022-09-01T22:28:17.314Z,0.90
2022-09-01T22:33:22.470Z,0.85
2022-09-01T22:38:24.964Z,1.10
2022-09-01T22:43:27.701Z,1.20
2022-09-01T22:48:31.435Z,0.80
2022-09-01T22:53:33.826Z,0.85
2022-09-01T22:58:36.438Z,1.35
2022-09-01T23:03:40.218Z,1.10
2022-09-01T23:08:43.052Z,1.15
2022-09-01T23:13:45.625Z,0.85
2022-09-01T23:18:49.825Z,1.13
2022-09-01T23:23:58.319Z,1.00
2022-09-01T23:29:01.695Z,1.00
2022-09-01T23:34:06.284Z,1.10
2022-09-01T23:39:08.800Z,0.90
2022-09-01T23:44:12.218Z,1.20
2022-09-01T23:54:18.171Z,0.90
2022-09-01T23:59:27.218Z,0.82
